Latest Weather Observations for Pallamana

IDS60901

Issued at 12:11 am CST Wednesday 18 May 2022 (issued every 10 minutes, with the page automatically refreshed every 10 minutes)

About weather observations | Map of Adelaide area stations | Latest observations for Adelaide area | Other Formats
Station Details ID: 024584 Name: PALLAMANA AERODROME Lat: -35.06 Lon: 139.23 Height: 45.0 m
Data from the previous 72 hours. | See also: Recent months at Pallamana
Date/Time
CST
Temp
°C
App
Temp
°C
Dew
Point
°C
Rel
Hum
%
Delta-T
°C
Wind Press
QNH
hPa
Press
MSL
hPa
Rain since
9am
mm
Dir  Spd
km/h
Gust
km/h
Spd
kts
Gust
kts
18/12:00am 10.3 9.0 9.8 97 0.3 NW 7 11 4 6 1022.6 1022.6 0.2
 
Date/Time
CST
Temp
°C
App
Temp
°C
Dew
Point
°C
Rel
Hum
%
Delta-T
°C
Wind Press
QNH
hPa
Press
MSL
hPa
Rain since
9am
mm
Dir  Spd
km/h
Gust
km/h
Spd
kts
Gust
kts
17/11:30pm 12.0 10.8 11.5 97 0.3 NW 9 13 5 7 1022.5 1022.5 0.2
17/11:00pm 12.2 10.7 11.9 98 0.2 WNW 11 17 6 9 1022.8 1022.8 0.2
17/10:30pm 11.6 10.7 11.3 98 0.2 S 7 11 4 6 1023.1 1023.1 0.0
17/10:00pm 11.8 10.4 11.0 95 0.4 NW 9 11 5 6 1022.8 1022.8 0.0
17/09:30pm 12.4 10.8 11.5 94 0.5 WNW 11 13 6 7 1022.8 1022.8 0.0
17/09:00pm 11.2 9.7 10.4 95 0.4 NNW 9 11 5 6 1022.9 1022.9 0.0
17/08:30pm 11.1 9.9 10.3 95 0.4 NNW 7 9 4 5 1022.4 1022.4 0.0
17/08:00pm 10.7 8.5 9.5 92 0.6 NNW 11 13 6 7 1022.3 1022.3 0.0
17/07:30pm 12.9 11.9 10.3 84 1.3 WNW 6 9 3 5 1022.3 1022.3 0.0
17/07:00pm 13.6 11.3 10.6 82 1.6 NW 13 28 7 15 1022.3 1022.3 0.0
17/06:30pm 13.9 12.3 10.3 79 1.9 NW 9 13 5 7 1022.1 1022.1 0.0
17/06:00pm 14.3 13.1 10.3 77 2.1 WNW 7 9 4 5 1021.8 1021.8 0.0
17/05:30pm 14.5 12.5 10.1 75 2.3 WSW 11 15 6 8 1021.4 1021.4 0.0
17/05:00pm 15.3 12.7 9.4 68 3.0 W 13 17 7 9 1021.3 1021.3 0.0
17/04:30pm 16.0 12.6 9.0 63 3.6 WSW 17 26 9 14 1021.1 1021.1 0.0
17/04:00pm 16.4 12.4 8.9 61 3.9 WSW 20 28 11 15 1021.0 1021.0 0.0
17/03:30pm 16.1 12.5 9.8 66 3.3 SW 19 22 10 12 1020.9 1020.9 0.0
17/03:00pm 17.3 13.2 8.7 57 4.4 W 20 30 11 16 1020.9 1020.9 0.0
17/02:30pm 16.8 12.9 9.5 62 3.8 WNW 20 28 11 15 1020.9 1020.9 0.0
17/02:00pm 16.5 11.2 8.5 59 4.1 W 26 35 14 19 1021.1 1021.1 0.0
17/01:30pm 16.4 11.1 9.8 65 3.4 W 28 35 15 19 1021.3 1021.3 0.0
17/01:07pm 15.3 10.5 10.3 72 2.6 WSW 26 33 14 18 1021.5 1021.5 0.0
17/01:00pm 15.4 10.2 10.4 72 2.6 SW 28 33 15 18 1021.6 1021.6 0.0
17/12:55pm 15.5 10.2 9.8 69 3.0 SW 28 35 15 19 1021.6 1021.6 0.0
17/12:30pm 16.2 12.9 9.4 64 3.5 WNW 17 24 9 13 1021.8 1021.8 0.0
17/12:00pm 15.7 13.3 10.0 69 3.0 NW 13 19 7 10 1022.1 1022.1 0.0
17/11:30am 15.8 13.5 10.3 70 2.9 WNW 13 20 7 11 1022.4 1022.4 0.0
17/11:00am 15.0 12.8 10.8 76 2.2 WNW 13 17 7 9 1022.7 1022.7 0.0
17/10:30am 14.2 11.5 10.4 78 2.0 WNW 15 20 8 11 1022.8 1022.8 0.0
17/10:00am 14.1 12.0 11.3 83 1.5 NW 13 17 7 9 1022.9 1022.9 0.0
17/09:30am 13.9 12.4 11.8 87 1.1 NW 11 15 6 8 1022.8 1022.8 0.0
17/09:00am 12.8 11.1 11.2 90 0.8 W 11 17 6 9 1022.9 1022.9 0.2
17/08:30am 12.2 9.7 11.1 93 0.6 W 15 24 8 13 1022.8 1022.8 0.2
17/08:00am 11.8 10.1 11.2 96 0.3 W 11 15 6 8 1022.4 1022.4 0.2
17/07:30am 10.8 8.1 10.3 97 0.3 WNW 15 20 8 11 1022.3 1022.3 0.2
17/07:00am 9.9 7.7 9.3 96 0.3 NW 11 15 6 8 1021.8 1021.8 0.2
17/06:30am 11.0 8.2 10.1 94 0.5 WNW 15 22 8 12 1021.7 1021.7 0.2
17/06:00am 10.3 8.3 10.1 99 0.1 NW 11 15 6 8 1021.5 1021.5 0.2
17/05:30am 10.1 7.9 9.5 96 0.3 NW 11 13 6 7 1021.3 1021.3 0.2
17/05:00am 11.5 8.8 10.4 93 0.6 WNW 15 17 8 9 1021.1 1021.1 0.2
17/04:30am 11.5 8.9 10.6 94 0.5 WNW 15 22 8 12 1020.8 1020.8 0.2
17/04:00am 11.2 8.9 10.4 95 0.4 WNW 13 17 7 9 1020.7 1020.7 0.2
17/03:30am 10.0 7.9 9.7 98 0.2 WNW 11 15 6 8 1020.5 1020.5 0.2
17/03:00am 9.4 6.8 9.3 99 0.0 NW 13 15 7 8 1020.4 1020.4 0.2
17/02:30am 10.5 8.5 10.0 97 0.3 NW 11 17 6 9 1020.5 1020.5 0.2
17/02:00am 10.4 8.3 9.8 96 0.3 NW 11 17 6 9 1020.7 1020.7 0.2
17/01:30am 9.2 6.6 9.2 100 0.0 NW 13 15 7 8 1020.6 1020.6 0.2
17/01:00am 8.1 6.0 8.1 100 0.0 WNW 9 11 5 6 1020.6 1020.6 0.2
17/12:30am 7.3 4.9 7.2 99 0.0 NW 9 9 5 5 1020.5 1020.5 0.2
17/12:00am 7.5 5.1 7.2 98 0.1 NW 9 9 5 5 1020.7 1020.7 0.2
 
Date/Time
CST
Temp
°C
App
Temp
°C
Dew
Point
°C
Rel
Hum
%
Delta-T
°C
Wind Press
QNH
hPa
Press
MSL
hPa
Rain since
9am
mm
Dir  Spd
km/h
Gust
km/h
Spd
kts
Gust
kts
16/11:30pm 9.5 7.5 8.7 95 0.4 NW 9 9 5 5 1020.4 1020.4 0.2
16/11:00pm 10.8 8.7 9.6 92 0.6 WNW 11 13 6 7 1020.4 1020.4 0.2
16/10:30pm 12.0 10.1 10.6 91 0.7 W 11 17 6 9 1020.4 1020.4 0.2
16/10:00pm 12.0 9.4 10.7 92 0.7 NW 15 20 8 11 1020.3 1020.3 0.2
16/09:30pm 11.6 9.2 10.2 91 0.7 WNW 13 15 7 8 1019.9 1019.9 0.2
16/09:00pm 12.6 9.9 10.3 86 1.2 WNW 15 20 8 11 1019.9 1019.9 0.2
16/08:30pm 11.8 10.1 10.0 89 0.9 W 9 11 5 6 1019.8 1019.8 0.2
16/08:00pm 11.9 9.9 10.0 88 1.0 W 11 13 6 7 1019.6 1019.6 0.2
16/07:30pm 12.0 10.1 9.2 83 1.4 W 9 15 5 8 1019.4 1019.4 0.2
16/07:00pm 12.2 9.5 9.0 81 1.6 W 13 15 7 8 1018.9 1018.9 0.2
16/06:30pm 12.8 10.2 9.4 80 1.7 W 13 15 7 8 1018.7 1018.7 0.2
16/06:00pm 12.7 10.1 9.5 81 1.6 WSW 13 20 7 11 1018.5 1018.5 0.2
16/05:30pm 13.5 10.6 9.6 77 2.0 WSW 15 22 8 12 1018.4 1018.4 0.2
16/05:00pm 15.1 12.2 9.5 69 2.9 W 15 19 8 10 1018.1 1018.1 0.2
16/04:30pm 15.5 10.3 8.7 64 3.5 W 26 35 14 19 1017.7 1017.7 0.2
16/04:00pm 16.7 11.9 8.9 60 4.0 WNW 24 39 13 21 1017.4 1017.4 0.2
16/03:30pm 16.2 10.4 9.6 65 3.4 W 30 43 16 23 1017.3 1017.3 0.2
16/03:00pm 16.4 11.1 9.8 65 3.5 W 28 43 15 23 1017.1 1017.1 0.2
16/02:30pm 16.7 11.7 9.6 63 3.7 W 26 43 14 23 1017.2 1017.2 0.2
16/02:00pm 15.3 11.4 10.9 75 2.3 WNW 22 32 12 17 1017.3 1017.3 0.2
16/01:51pm 14.2 8.3 10.6 79 1.9 W 32 50 17 27 1017.3 1017.3 0.2
16/01:45pm 14.9 9.8 10.5 75 2.3 W 28 50 15 27 1017.2 1017.2 0.2
16/01:30pm 15.8 12.8 10.6 71 2.8 SW 17 28 9 15 1017.0 1017.0 0.2
16/01:00pm 14.6 8.5 11.6 82 1.6 WSW 35 46 19 25 1017.1 1017.1 0.2
16/12:56pm 15.6 9.9 11.2 75 2.4 W 32 46 17 25 1016.9 1016.9 0.2
16/12:30pm 16.5 11.5 9.4 63 3.7 W 26 33 14 18 1017.1 1017.1 0.2
16/12:00pm 16.1 13.1 12.1 77 2.2 WNW 19 30 10 16 1017.4 1017.4 0.2
16/11:30am 14.9 10.8 11.5 80 1.8 W 24 43 13 23 1018.0 1018.0 0.2
16/11:01am 14.1 11.7 12.5 90 0.9 W 17 28 9 15 1017.7 1017.7 0.2
16/11:00am 14.2 12.3 12.9 92 0.7 W 15 26 8 14 1017.7 1017.7 0.2
16/10:38am 14.2 11.7 12.2 88 1.1 WNW 17 43 9 23 1017.8 1017.8 0.0
16/10:37am 14.4 12.3 12.4 88 1.1 WNW 15 43 8 23 1017.7 1017.7 0.0
16/10:30am 15.1 14.0 12.1 82 1.6 NW 9 13 5 7 1017.6 1017.6 0.0
16/10:00am 14.0 12.7 12.6 91 0.8 WNW 11 13 6 7 1017.7 1017.7 0.0
16/09:30am 13.0 12.0 12.2 95 0.4 NW 9 15 5 8 1017.9 1017.9 0.0
16/09:00am 12.7 12.2 12.7 100 0.0 SSW 7 9 4 5 1017.8 1017.8 1.4
16/08:56am 12.7 12.4 12.7 100 0.0 SW 6 9 3 5 1017.8 1017.8 1.4
16/08:30am 12.0 12.6 12.0 100 0.0 CALM 0 0 0 0 1017.7 1017.7 1.2
16/08:08am 11.8 10.7 11.8 100 0.0 S 9 13 5 7 1017.1 1017.1 0.8
16/08:00am 11.5 10.8 11.5 100 0.0 ESE 6 11 3 6 1017.1 1017.1 0.6
16/07:30am 10.4 9.3 10.1 98 0.2 N 6 7 3 4 1016.7 1016.7 0.6
16/07:00am 10.6 10.3 10.1 97 0.3 SSE 2 9 1 5 1016.5 1016.5 0.6
16/06:30am 10.0 8.7 9.2 95 0.4 ESE 6 7 3 4 1016.0 1016.0 0.6
16/06:00am 11.4 10.1 10.0 91 0.7 SW 7 15 4 8 1015.7 1015.7 0.6
16/05:30am 11.1 8.9 9.5 90 0.8 WNW 11 13 6 7 1015.5 1015.5 0.6
16/05:00am 10.9 8.7 9.3 90 0.8 WNW 11 13 6 7 1014.9 1014.9 0.6
16/04:30am 11.2 9.2 10.0 92 0.6 NW 11 15 6 8 1014.9 1014.9 0.6
16/04:00am 11.4 9.1 10.6 95 0.4 WNW 13 15 7 8 1014.8 1014.8 0.6
16/03:30am 12.1 10.8 11.2 94 0.5 WNW 9 11 5 6 1014.7 1014.7 0.6
16/03:19am 12.5 10.9 11.4 93 0.6 WNW 11 19 6 10 1014.7 1014.7 0.6
16/03:00am 12.8 9.8 11.9 94 0.5 WSW 19 28 10 15 1014.8 1014.8 0.6
16/02:30am 12.4 10.7 11.3 93 0.6 W 11 13 6 7 1014.7 1014.7 0.4
16/02:21am 12.3 10.2 11.0 92 0.7 W 13 17 7 9 1014.9 1014.9 0.4
16/02:03am 13.3 10.3 11.9 91 0.8 WSW 19 30 10 16 1014.9 1014.9 0.4
16/02:00am 13.3 11.0 11.7 90 0.9 WSW 15 30 8 16 1014.9 1014.9 0.4
16/01:30am 13.3 11.3 10.3 82 1.6 WNW 11 13 6 7 1014.8 1014.8 0.4
16/01:00am 13.6 11.7 10.4 81 1.7 WNW 11 15 6 8 1015.0 1015.0 0.4
16/12:30am 13.7 11.9 10.9 83 1.5 WNW 11 17 6 9 1015.2 1015.2 0.4
16/12:00am 14.0 12.8 11.7 86 1.2 WNW 9 13 5 7 1015.2 1015.2 0.4
 
Date/Time
CST
Temp
°C
App
Temp
°C
Dew
Point
°C
Rel
Hum
%
Delta-T
°C
Wind Press
QNH
hPa
Press
MSL
hPa
Rain since
9am
mm
Dir  Spd
km/h
Gust
km/h
Spd
kts
Gust
kts
15/11:30pm 13.9 12.7 11.6 86 1.2 NW 9 13 5 7 1015.1 1015.1 0.4
15/11:00pm 13.9 12.3 11.4 85 1.3 NW 11 15 6 8 1014.9 1014.9 0.4
15/10:30pm 13.5 11.6 11.9 90 0.9 NNW 13 17 7 9 1014.8 1014.8 0.4
15/10:00pm 14.2 13.0 11.7 85 1.3 NW 9 13 5 7 1014.9 1014.9 0.4
15/09:30pm 14.7 13.1 11.7 82 1.6 WNW 11 17 6 9 1014.9 1014.9 0.4
15/09:00pm 13.7 12.1 11.6 87 1.1 WNW 11 15 6 8 1014.7 1014.7 0.4
15/08:30pm 14.5 13.7 11.7 83 1.5 WNW 7 11 4 6 1014.6 1014.6 0.4
15/08:00pm 15.3 14.2 12.1 81 1.7 W 9 13 5 7 1014.3 1014.3 0.4
15/07:30pm 15.8 15.0 12.9 83 1.6 W 9 15 5 8 1014.1 1014.1 0.4
15/07:00pm 15.0 15.8 12.5 85 1.4 CALM 0 0 0 0 1013.8 1013.8 0.4
15/06:30pm 14.8 14.2 12.3 85 1.4 NNW 7 9 4 5 1013.5 1013.5 0.4
15/06:00pm 15.1 14.1 12.2 83 1.6 NNW 9 13 5 7 1013.2 1013.2 0.4
15/05:30pm 16.4 15.1 12.4 77 2.2 NW 11 19 6 10 1013.1 1013.1 0.4
15/05:00pm 16.8 13.3 12.3 75 2.5 WNW 22 35 12 19 1012.8 1012.8 0.4
15/04:30pm 17.3 14.4 12.8 75 2.5 WNW 20 32 11 17 1012.7 1012.7 0.4
15/04:00pm 16.9 14.6 14.0 83 1.7 WNW 19 28 10 15 1012.6 1012.6 0.4
15/03:54pm 16.3 15.1 14.0 86 1.3 W 13 24 7 13 1012.6 1012.6 0.4
15/03:38pm 16.6 13.4 14.2 86 1.4 W 24 37 13 20 1012.5 1012.4 0.2
15/03:30pm 17.6 13.8 13.7 78 2.2 WNW 26 39 14 21 1012.3 1012.2 0.0
15/03:05pm 18.8 14.2 12.3 66 3.6 WNW 28 50 15 27 1012.0 1011.9 0.0
15/03:00pm 19.0 14.8 12.3 65 3.7 WNW 26 37 14 20 1012.0 1011.9 0.0
15/02:30pm 19.6 15.9 11.6 60 4.4 WNW 22 35 12 19 1011.6 1011.5 0.0
15/02:00pm 20.0 15.9 11.5 58 4.7 NW 24 35 13 19 1011.7 1011.6 0.0
15/01:30pm 20.2 16.2 11.7 58 4.7 NW 24 43 13 23 1011.8 1011.7 0.0
15/01:00pm 19.2 14.4 11.7 62 4.1 NW 28 39 15 21 1012.1 1012.0 0.0
15/12:30pm 18.0 13.6 11.8 67 3.4 NW 26 41 14 22 1012.8 1012.8 0.0
15/12:00pm 18.2 13.6 11.0 63 3.9 NW 26 37 14 20 1013.2 1013.2 0.0
15/11:30am 18.8 14.6 11.1 61 4.2 NNW 24 33 13 18 1013.4 1013.4 0.0
15/11:00am 19.0 12.7 11.1 60 4.3 NNW 35 52 19 28 1013.6 1013.6 0.0
15/10:58am 19.4 13.5 11.2 59 4.5 NNW 33 52 18 28 1013.6 1013.6 0.0
15/10:30am 18.9 15.2 12.6 67 3.5 NNW 24 33 13 18 1013.9 1013.9 0.0
15/10:00am 17.9 13.8 12.6 71 3.0 NNW 26 35 14 19 1014.1 1014.1 0.0
15/09:30am 17.4 13.0 12.9 75 2.5 NNW 28 35 15 19 1013.8 1013.8 0.0
15/09:00am 16.9 13.5 13.6 81 1.9 NNW 24 33 13 18 1013.8 1013.8 0.0
15/08:30am 15.3 13.8 14.2 93 0.6 N 15 20 8 11 1013.9 1013.9 0.0
15/08:00am 13.6 11.7 13.0 96 0.3 NNE 15 19 8 10 1014.0 1014.0 0.0
15/07:30am 13.0 10.6 12.5 97 0.3 NNE 17 24 9 13 1014.1 1014.1 0.0
15/07:00am 11.9 9.9 11.6 98 0.2 N 13 15 7 8 1013.8 1013.8 0.0
15/06:30am 11.7 8.9 11.5 99 0.1 N 17 20 9 11 1013.4 1013.4 0.0
15/06:00am 11.2 8.3 11.0 99 0.1 N 17 19 9 10 1013.5 1013.5 0.0
15/05:30am 11.1 8.9 10.9 99 0.1 NNW 13 17 7 9 1013.3 1013.3 0.0
15/05:00am 11.1 8.2 11.1 100 0.0 N 17 19 9 10 1013.3 1013.3 0.0
15/04:30am 11.1 8.6 11.1 100 0.0 NNW 15 19 8 10 1013.1 1013.1 0.0
15/04:00am 10.0 7.6 10.0 100 0.0 N 13 15 7 8 1013.1 1013.1 0.0
15/03:30am 10.7 8.9 10.7 100 0.0 N 11 13 6 7 1013.2 1013.2 0.0
15/03:00am 11.3 9.2 11.3 100 0.0 N 13 17 7 9 1013.6 1013.6 0.0
15/02:30am 10.2 8.6 10.2 100 0.0 NNW 9 13 5 7 1013.7 1013.7 0.0
15/02:00am 11.2 9.1 11.2 100 0.0 NNW 13 15 7 8 1013.7 1013.7 0.0
15/01:30am 10.8 9.0 10.8 100 0.0 NNW 11 13 6 7 1013.7 1013.7 0.0
15/01:00am 10.7 9.2 10.4 98 0.2 NW 9 11 5 6 1013.9 1013.9 0.0
15/12:30am 11.7 10.5 11.7 100 0.0 NW 9 11 5 6 1013.9 1013.9 0.0

Latest Capital City Observations: Canberra | Sydney | Melbourne | Brisbane | Adelaide | Perth | Hobart | Darwin

Other formats

Comma delimited format used in spreadsheet applications
http://www.bom.gov.au/fwo/IDS60901/IDS60901.95818.axf

JavaScript Object Notation format (JSON) in row-major order
http://www.bom.gov.au/fwo/IDS60901/IDS60901.95818.json

Data quality

Most of these data are generated automatically and are frequently updated. Quality checks on data are not normally performed. It is possible for incorrect values to appear. Refer to information at About Latest Weather Observations and please check the disclaimer before using these data.